createdAt,value
2022-09-23T00:01:18.999Z,85949.28
2022-09-23T00:03:46.409Z,85925.16
2022-09-23T00:06:16.862Z,85933.50
2022-09-23T00:08:44.301Z,85952.75
2022-09-23T00:11:14.282Z,85945.19
2022-09-23T00:13:43.238Z,85966.59
2022-09-23T00:16:13.857Z,85958.94
2022-09-23T00:18:42.023Z,85965.91
2022-09-23T00:21:12.349Z,85957.00
2022-09-23T00:23:40.639Z,85957.00
2022-09-23T00:26:09.679Z,85914.44
2022-09-23T00:28:36.987Z,85907.59
2022-09-23T00:31:05.837Z,85921.28
2022-09-23T00:33:33.244Z,85924.78
2022-09-23T00:36:02.052Z,85941.94
2022-09-23T00:38:29.831Z,85939.16
2022-09-23T00:40:57.324Z,85934.41
2022-09-23T00:43:47.397Z,85944.03
2022-09-23T00:46:19.654Z,85922.06
2022-09-23T00:48:50.863Z,85946.13
2022-09-23T00:51:23.449Z,85921.38
2022-09-23T00:53:51.804Z,85940.59
2022-09-23T00:56:21.160Z,85917.28
2022-09-23T00:58:49.684Z,85933.69
2022-09-23T01:01:17.054Z,85938.59
2022-09-23T01:03:46.665Z,85935.19
2022-09-23T01:06:13.772Z,85907.75
2022-09-23T01:08:44.295Z,85896.13
2022-09-23T01:11:23.201Z,85946.38
2022-09-23T01:14:10.559Z,85942.22
2022-09-23T01:16:42.247Z,85946.38
2022-09-23T01:19:11.730Z,85942.25
2022-09-23T01:21:53.151Z,85932.03
2022-09-23T01:24:41.661Z,85936.09
2022-09-23T01:27:41.454Z,85931.31
2022-09-23T01:30:11.627Z,85900.41
2022-09-23T01:32:53.777Z,85916.28
2022-09-23T01:35:37.890Z,85904.09
2022-09-23T01:38:10.537Z,85919.13
2022-09-23T01:40:53.830Z,85926.16
2022-09-23T01:43:47.219Z,85897.38
2022-09-23T01:46:39.949Z,85927.59
2022-09-23T01:49:13.931Z,85921.44
2022-09-23T01:51:46.852Z,85920.75
2022-09-23T01:54:22.621Z,85918.75
2022-09-23T01:57:04.555Z,85917.34
2022-09-23T01:59:43.405Z,85916.66
2022-09-23T02:02:22.097Z,85887.19
2022-09-23T02:05:09.769Z,85911.25
2022-09-23T02:08:05.295Z,85914.66
2022-09-23T02:10:37.187Z,85911.25
2022-09-23T02:13:10.206Z,85921.59
2022-09-23T02:15:50.086Z,85896.13
2022-09-23T02:18:38.721Z,85911.25
2022-09-23T02:21:09.662Z,85926.41
2022-09-23T02:23:42.589Z,85925.72
2022-09-23T02:26:28.265Z,85919.53
2022-09-23T02:29:27.754Z,85915.38
2022-09-23T02:32:27.154Z,85916.75
2022-09-23T02:35:12.510Z,85925.00
2022-09-23T02:38:05.519Z,85911.25
2022-09-23T02:40:51.062Z,85887.91
2022-09-23T02:43:28.175Z,85917.44
2022-09-23T02:45:56.250Z,85886.53
2022-09-23T02:48:29.471Z,85895.44
2022-09-23T02:50:57.866Z,85923.63
2022-09-23T02:53:25.643Z,85890.66
2022-09-23T02:55:52.509Z,85889.28
2022-09-23T02:58:19.573Z,85852.16
2022-09-23T03:00:50.304Z,85923.66
2022-09-23T03:03:55.987Z,85918.16
2022-09-23T03:06:38.344Z,85904.44
2022-09-23T03:09:15.461Z,85927.84
2022-09-23T03:11:48.765Z,85903.06
2022-09-23T03:15:04.039Z,85921.63
2022-09-23T03:17:44.158Z,85911.34
2022-09-23T03:20:22.731Z,85903.06
2022-09-23T03:22:55.149Z,85887.28
2022-09-23T03:25:25.557Z,85898.97
2022-09-23T03:27:57.672Z,85929.94
2022-09-23T03:30:25.417Z,85926.50
2022-09-23T03:32:54.791Z,85889.41
2022-09-23T03:35:24.883Z,85930.66
2022-09-23T03:38:07.257Z,85921.00
2022-09-23T03:40:43.126Z,85914.16
2022-09-23T03:43:14.368Z,85913.47
2022-09-23T03:45:42.772Z,85923.78
2022-09-23T03:48:09.805Z,85941.69
2022-09-23T03:50:36.757Z,85921.72
2022-09-23T03:53:03.691Z,85947.88
2022-09-23T03:55:32.282Z,85947.19
2022-09-23T03:58:00.322Z,85943.06
2022-09-23T04:00:27.840Z,85927.25
2022-09-23T04:02:54.910Z,85910.06
2022-09-23T04:05:21.985Z,85919.69
2022-09-23T04:07:49.601Z,85914.19
2022-09-23T04:10:16.648Z,85882.53
2022-09-23T04:12:43.619Z,85893.56
2022-09-23T04:15:11.190Z,85940.31
2022-09-23T04:17:38.125Z,85924.50
2022-09-23T04:20:05.448Z,85900.44
2022-09-23T04:22:34.107Z,85940.34
2022-09-23T04:25:01.041Z,85931.38
2022-09-23T04:27:28.044Z,85919.69
2022-09-23T04:29:55.020Z,85936.22
2022-09-23T04:32:21.912Z,85908.00
2022-09-23T04:34:48.824Z,85938.31
2022-09-23T04:37:15.833Z,85936.22
2022-09-23T04:39:43.374Z,85907.34
2022-09-23T04:42:10.275Z,85930.69
2022-09-23T04:44:39.025Z,85903.19
2022-09-23T04:47:06.195Z,85923.84
2022-09-23T04:49:33.798Z,85937.59
2022-09-23T04:52:01.056Z,85922.47
2022-09-23T04:54:28.158Z,85947.25
2022-09-23T04:56:55.164Z,85905.94
2022-09-23T04:59:22.157Z,85942.41
2022-09-23T05:01:49.343Z,85934.16
2022-09-23T05:04:16.317Z,85944.47
2022-09-23T05:06:46.550Z,85944.47
2022-09-23T05:09:17.838Z,85949.28
2022-09-23T05:11:45.624Z,85939.66
2022-09-23T05:14:13.230Z,85912.78
2022-09-23T05:16:40.782Z,85901.09
2022-09-23T05:19:08.056Z,85934.09
2022-09-23T05:21:35.312Z,85939.63
2022-09-23T05:24:02.623Z,85922.41
2022-09-23T05:26:32.235Z,85945.13
2022-09-23T05:29:00.194Z,85938.94
2022-09-23T05:31:29.058Z,85946.50
2022-09-23T05:34:04.829Z,85943.06
2022-09-23T05:36:37.879Z,85941.66
2022-09-23T05:39:07.284Z,85941.66
2022-09-23T05:41:34.562Z,85921.00
2022-09-23T05:44:01.926Z,85949.94
2022-09-23T05:46:30.892Z,85930.63
2022-09-23T05:49:02.444Z,85913.44
2022-09-23T05:51:31.410Z,85950.56
2022-09-23T05:53:59.334Z,85937.50
2022-09-23T05:56:28.703Z,85954.00
2022-09-23T05:58:57.745Z,85953.28
2022-09-23T06:01:33.965Z,85934.69
2022-09-23T06:04:03.216Z,85947.09
2022-09-23T06:06:41.749Z,85947.06
2022-09-23T06:09:13.623Z,85948.44
2022-09-23T06:11:41.374Z,85901.66
2022-09-23T06:14:12.266Z,85942.94
2022-09-23T06:16:39.312Z,85930.56
2022-09-23T06:19:07.038Z,85933.97
2022-09-23T06:21:39.486Z,85963.56
2022-09-23T06:24:07.742Z,85955.31
2022-09-23T06:26:37.696Z,85958.00
2022-09-23T06:29:10.275Z,85942.88
2022-09-23T06:31:37.468Z,85960.06
2022-09-23T06:34:11.955Z,85962.09
2022-09-23T06:36:44.488Z,85965.56
2022-09-23T06:39:14.270Z,85955.16
2022-09-23T06:41:41.337Z,85949.63
2022-09-23T06:44:12.998Z,85957.84
2022-09-23T06:46:40.109Z,85933.69
2022-09-23T06:49:07.415Z,85937.06
2022-09-23T06:51:34.580Z,85944.63
2022-09-23T06:54:01.572Z,85954.19
2022-09-23T06:56:28.625Z,85914.91
2022-09-23T06:58:55.800Z,85946.44
2022-09-23T07:01:23.454Z,85956.03
2022-09-23T07:03:50.639Z,85929.91
2022-09-23T07:06:20.376Z,85909.28
2022-09-23T07:08:48.565Z,85935.41
2022-09-23T07:11:16.217Z,85933.25
2022-09-23T07:13:43.204Z,85972.47
2022-09-23T07:16:11.297Z,85980.72
2022-09-23T07:18:39.075Z,85955.94
2022-09-23T07:21:15.816Z,85986.19
2022-09-23T07:23:48.326Z,85992.41
2022-09-23T07:26:16.961Z,85982.75
2022-09-23T07:28:44.280Z,85979.34
2022-09-23T07:31:13.906Z,85988.88
2022-09-23T07:33:44.301Z,85957.28
2022-09-23T07:36:14.783Z,85999.16
2022-09-23T07:38:45.403Z,85965.44
2022-09-23T07:41:15.133Z,85966.03
2022-09-23T07:43:42.124Z,85985.84
2022-09-23T07:46:12.137Z,85944.75
2022-09-23T07:48:39.405Z,85945.28
2022-09-23T07:51:12.550Z,85972.66
2022-09-23T07:53:39.896Z,85967.13
2022-09-23T07:56:07.058Z,85967.00
2022-09-23T07:58:35.108Z,85970.44
2022-09-23T08:01:05.011Z,85980.06
2022-09-23T08:03:32.248Z,85935.34
2022-09-23T08:06:11.340Z,85962.63
2022-09-23T08:08:40.813Z,85973.66
2022-09-23T08:11:10.351Z,85974.34
2022-09-23T08:13:37.687Z,85963.94
2022-09-23T08:16:04.824Z,85944.03
2022-09-23T08:18:31.824Z,85911.72
2022-09-23T08:20:59.271Z,85953.63
2022-09-23T08:23:26.376Z,85947.88
2022-09-23T08:26:02.359Z,85891.53
2022-09-23T08:28:29.711Z,85901.72
2022-09-23T08:30:56.739Z,85946.97
2022-09-23T08:33:24.223Z,85950.25
2022-09-23T08:35:52.354Z,85917.09
2022-09-23T08:38:20.260Z,85941.59
2022-09-23T08:40:49.642Z,85892.03
2022-09-23T08:43:27.202Z,85920.63
2022-09-23T08:45:57.557Z,85880.78
2022-09-23T08:48:46.795Z,85934.13
2022-09-23T08:51:29.521Z,85938.34
2022-09-23T08:53:58.359Z,85943.84
2022-09-23T08:56:25.478Z,85942.56
2022-09-23T08:58:55.418Z,85937.53
2022-09-23T09:01:45.808Z,85938.28
2022-09-23T09:04:17.662Z,85950.84
2022-09-23T09:06:52.981Z,85961.94
2022-09-23T09:09:26.476Z,85956.31
2022-09-23T09:12:03.596Z,85970.34
2022-09-23T09:14:37.131Z,85975.13
2022-09-23T09:17:24.773Z,85969.03
2022-09-23T09:19:55.409Z,85976.63
2022-09-23T09:22:48.821Z,85986.41
2022-09-23T09:25:53.218Z,85983.25
2022-09-23T09:28:43.744Z,85990.28
2022-09-23T09:31:29.336Z,85992.47
2022-09-23T09:34:06.805Z,85996.75
2022-09-23T09:36:45.196Z,85990.69
2022-09-23T09:39:14.722Z,86011.47
2022-09-23T09:41:50.679Z,85934.66
2022-09-23T09:44:24.254Z,86009.03
2022-09-23T09:46:54.622Z,85985.63
2022-09-23T09:49:46.942Z,86022.75
2022-09-23T09:52:21.336Z,85981.47
2022-09-23T09:54:49.866Z,86018.00
2022-09-23T09:57:32.073Z,86009.06
2022-09-23T10:00:25.036Z,85989.88
2022-09-23T10:03:15.152Z,86006.34
2022-09-23T10:05:45.240Z,86011.13
2022-09-23T10:08:35.389Z,85980.31
2022-09-23T10:11:09.560Z,86007.72
2022-09-23T10:13:37.976Z,86008.41
2022-09-23T10:16:05.685Z,86001.31
2022-09-23T10:18:56.852Z,85992.97
2022-09-23T10:21:27.929Z,85986.66
2022-09-23T10:24:01.450Z,85977.09
2022-09-23T10:26:32.909Z,85983.66
2022-09-23T10:29:29.419Z,85976.72
2022-09-23T10:32:36.539Z,85979.34
2022-09-23T10:35:09.396Z,85982.06
2022-09-23T10:37:40.011Z,85978.38
2022-09-23T10:40:36.279Z,85972.22
2022-09-23T10:44:01.102Z,85969.34
2022-09-23T10:46:38.424Z,85960.63
2022-09-23T10:49:10.232Z,85959.16
2022-09-23T10:51:44.174Z,85959.09
2022-09-23T10:54:29.030Z,85959.00
2022-09-23T10:57:21.580Z,85930.97
2022-09-23T11:00:07.613Z,85966.41
2022-09-23T11:02:54.146Z,85966.13
2022-09-23T11:05:35.182Z,85963.31
2022-09-23T11:08:22.371Z,85937.16
2022-09-23T11:10:59.616Z,85941.28
2022-09-23T11:13:29.240Z,85939.59
2022-09-23T11:16:05.269Z,85939.47
2022-09-23T11:18:44.021Z,85929.63
2022-09-23T11:21:14.352Z,85940.91
2022-09-23T11:23:54.402Z,85929.47
2022-09-23T11:26:25.951Z,85941.81
2022-09-23T11:28:57.526Z,85933.38
2022-09-23T11:31:59.923Z,85942.94
2022-09-23T11:34:55.100Z,85939.88
2022-09-23T11:37:30.715Z,85930.53
2022-09-23T11:40:24.133Z,85930.25
2022-09-23T11:43:07.599Z,85927.31
2022-09-23T11:45:40.762Z,85913.50
2022-09-23T11:48:41.671Z,85925.53
2022-09-23T11:51:22.226Z,85928.06
2022-09-23T11:53:55.345Z,85928.25
2022-09-23T11:56:35.357Z,85899.81
2022-09-23T11:59:05.733Z,85932.31
2022-09-23T12:01:45.567Z,85930.09
2022-09-23T12:04:30.175Z,85933.41
2022-09-23T12:07:09.379Z,85914.88
2022-09-23T12:09:58.111Z,85904.56
2022-09-23T12:12:54.948Z,85949.44
2022-09-23T12:15:34.696Z,85952.06
2022-09-23T12:18:23.495Z,85949.78
2022-09-23T12:21:08.101Z,85957.28
2022-09-23T12:24:19.030Z,85947.34
2022-09-23T12:26:53.469Z,85943.16
2022-09-23T12:29:21.091Z,85921.16
2022-09-23T12:31:49.883Z,85918.94
2022-09-23T12:34:39.934Z,85933.09
2022-09-23T12:37:07.075Z,85941.69
2022-09-23T12:39:37.442Z,85922.88
2022-09-23T12:42:17.418Z,85950.19
2022-09-23T12:44:47.590Z,85940.22
2022-09-23T12:47:14.511Z,85957.22
2022-09-23T12:49:42.998Z,85918.28
2022-09-23T12:52:12.879Z,85957.22
2022-09-23T12:54:41.359Z,85950.38
2022-09-23T12:57:36.202Z,85946.09
2022-09-23T13:00:18.112Z,85944.44
2022-09-23T13:03:08.122Z,85943.25
2022-09-23T13:06:05.761Z,85948.47
2022-09-23T13:08:37.811Z,85935.25
2022-09-23T13:11:13.450Z,85933.75
2022-09-23T13:13:43.659Z,85926.16
2022-09-23T13:16:31.132Z,85961.72
2022-09-23T13:19:03.800Z,85927.53
2022-09-23T13:21:42.636Z,85945.00
2022-09-23T13:24:25.144Z,85949.91
2022-09-23T13:27:18.042Z,85952.00
2022-09-23T13:30:20.249Z,85934.41
2022-09-23T13:33:14.399Z,85949.41
2022-09-23T13:35:48.544Z,85924.75
2022-09-23T13:38:28.262Z,85937.22
2022-09-23T13:41:08.098Z,85921.63
2022-09-23T13:43:41.675Z,85937.13
2022-09-23T13:46:14.120Z,85905.09
2022-09-23T13:48:45.401Z,85903.34
2022-09-23T13:51:24.968Z,85950.00
2022-09-23T13:53:56.867Z,85919.34
2022-09-23T13:56:25.832Z,85908.44
2022-09-23T13:58:53.253Z,85948.94
2022-09-23T14:01:29.626Z,85947.81
2022-09-23T14:03:56.611Z,85928.25
2022-09-23T14:06:23.879Z,85941.94
2022-09-23T14:08:51.307Z,85917.47
2022-09-23T14:11:20.673Z,85942.00
2022-09-23T14:13:51.227Z,85942.53
2022-09-23T14:16:19.732Z,85896.72
2022-09-23T14:18:55.373Z,85947.38
2022-09-23T14:21:37.176Z,85946.56
2022-09-23T14:24:30.294Z,85887.13
2022-09-23T14:27:21.102Z,85944.66
2022-09-23T14:29:49.725Z,85939.69
2022-09-23T14:32:23.339Z,85945.16
2022-09-23T14:35:04.633Z,85923.38
2022-09-23T14:38:02.494Z,85950.81
2022-09-23T14:40:36.167Z,85934.22
2022-09-23T14:43:18.465Z,85957.53
2022-09-23T14:45:50.713Z,85935.03
2022-09-23T14:48:23.271Z,85906.84
2022-09-23T14:50:54.798Z,85927.44
2022-09-23T14:53:24.518Z,85967.94
2022-09-23T14:56:07.362Z,85969.22
2022-09-23T14:58:54.299Z,85974.19
2022-09-23T15:01:33.548Z,85970.09
2022-09-23T15:04:09.500Z,85982.44
2022-09-23T15:06:43.143Z,85977.06
2022-09-23T15:09:17.058Z,85948.41
2022-09-23T15:11:44.177Z,85956.69
2022-09-23T15:14:36.210Z,85965.00
2022-09-23T15:17:01.475Z,85984.25
2022-09-23T15:19:30.227Z,85957.91
2022-09-23T15:21:57.406Z,85983.19
2022-09-23T15:24:33.454Z,85983.78
2022-09-23T15:27:00.532Z,85968.66
2022-09-23T15:29:27.605Z,85956.44
2022-09-23T15:31:55.600Z,85983.88
2022-09-23T15:34:22.653Z,85975.22
2022-09-23T15:36:49.755Z,86001.75
2022-09-23T15:39:17.119Z,85997.69
2022-09-23T15:41:51.584Z,85948.47
2022-09-23T15:44:21.774Z,85978.63
2022-09-23T15:46:52.096Z,86003.34
2022-09-23T15:49:33.880Z,85999.22
2022-09-23T15:52:01.601Z,85999.28
2022-09-23T15:54:29.329Z,85997.97
2022-09-23T15:57:00.574Z,86003.63
2022-09-23T15:59:28.798Z,85984.31
2022-09-23T16:01:57.121Z,86013.34
2022-09-23T16:04:25.668Z,86007.13
2022-09-23T16:06:53.373Z,86016.19
2022-09-23T16:09:20.311Z,85993.47
2022-09-23T16:11:49.807Z,85985.94
2022-09-23T16:14:18.533Z,86020.31
2022-09-23T16:16:47.995Z,86003.84
2022-09-23T16:19:17.725Z,85990.84
2022-09-23T16:21:45.226Z,86014.69
2022-09-23T16:24:17.699Z,86018.25
2022-09-23T16:26:46.689Z,86021.94
2022-09-23T16:29:14.464Z,85984.97
2022-09-23T16:31:41.676Z,86006.38
2022-09-23T16:34:08.872Z,86021.66
2022-09-23T16:36:41.963Z,86021.09
2022-09-23T16:39:12.497Z,86033.34
2022-09-23T16:41:40.434Z,86030.06
2022-09-23T16:44:09.468Z,86016.59
2022-09-23T16:46:36.800Z,86021.31
2022-09-23T16:49:04.077Z,86029.59
2022-09-23T16:51:38.484Z,86006.34
2022-09-23T16:54:13.347Z,85979.06
2022-09-23T16:56:46.506Z,86047.09
2022-09-23T16:59:14.788Z,86020.34
2022-09-23T17:02:01.292Z,85995.03
2022-09-23T17:04:28.468Z,86048.88
2022-09-23T17:06:56.501Z,86028.91
2022-09-23T17:09:26.122Z,86044.75
2022-09-23T17:12:01.250Z,86046.81
2022-09-23T17:14:29.979Z,86030.44
2022-09-23T17:16:59.040Z,86022.28
2022-09-23T17:19:26.146Z,86027.84
2022-09-23T17:21:54.092Z,86058.09
2022-09-23T17:24:21.215Z,86060.88
2022-09-23T17:26:52.592Z,86049.34
2022-09-23T17:29:20.229Z,86050.00
2022-09-23T17:31:47.283Z,86070.09
2022-09-23T17:34:14.388Z,86023.34
2022-09-23T17:36:41.439Z,86069.41
2022-09-23T17:39:08.550Z,86076.38
2022-09-23T17:41:35.494Z,86057.22
2022-09-23T17:44:02.697Z,86037.97
2022-09-23T17:46:30.287Z,86078.53
2022-09-23T17:48:58.031Z,86075.09
2022-09-23T17:51:25.676Z,86075.19
2022-09-23T17:53:52.769Z,86061.47
2022-09-23T17:56:22.313Z,86082.84
2022-09-23T17:58:50.445Z,86085.63
2022-09-23T18:01:19.409Z,86090.50
2022-09-23T18:03:47.466Z,86059.53
2022-09-23T18:06:17.692Z,86093.28
2022-09-23T18:08:46.799Z,86085.81
2022-09-23T18:11:22.769Z,86096.81
2022-09-23T18:13:55.271Z,86095.53
2022-09-23T18:16:25.420Z,86072.13
2022-09-23T18:18:57.666Z,86109.97
2022-09-23T18:21:26.933Z,86100.28
2022-09-23T18:23:55.651Z,86104.38
2022-09-23T18:26:30.049Z,86112.66
2022-09-23T18:29:01.532Z,86112.66
2022-09-23T18:31:29.843Z,86121.63
2022-09-23T18:33:58.361Z,86091.41
2022-09-23T18:36:25.369Z,86083.78
2022-09-23T18:38:52.422Z,86082.41
2022-09-23T18:41:19.991Z,86111.31
2022-09-23T18:43:48.727Z,86092.09
2022-09-23T18:46:24.046Z,86099.00
2022-09-23T18:49:10.378Z,86117.50
2022-09-23T18:51:46.757Z,86028.81
2022-09-23T18:54:13.752Z,86101.69
2022-09-23T18:56:42.576Z,86094.16
2022-09-23T18:59:14.585Z,86123.75
2022-09-23T19:01:41.723Z,86125.13
2022-09-23T19:04:08.850Z,86127.88
2022-09-23T19:06:37.495Z,86122.28
2022-09-23T19:09:07.153Z,86093.50
2022-09-23T19:11:36.430Z,86087.28
2022-09-23T19:14:06.512Z,86091.50
2022-09-23T19:16:35.164Z,86129.94
2022-09-23T19:19:04.141Z,86092.09
2022-09-23T19:21:31.917Z,86132.06
2022-09-23T19:24:04.921Z,86121.16
2022-09-23T19:26:37.797Z,86130.00
2022-09-23T19:29:06.344Z,86136.22
2022-09-23T19:31:35.690Z,86088.13
2022-09-23T19:34:10.809Z,86134.13
2022-09-23T19:36:40.197Z,86136.22
2022-09-23T19:39:18.745Z,86108.72
2022-09-23T19:41:46.565Z,86134.91
2022-09-23T19:44:14.532Z,86134.91
2022-09-23T19:46:45.355Z,86132.13
2022-09-23T19:49:13.314Z,86140.44
2022-09-23T19:51:40.318Z,86127.28
2022-09-23T19:54:09.240Z,86143.19
2022-09-23T19:56:37.685Z,86110.19
2022-09-23T19:59:07.351Z,86136.31
2022-09-23T20:01:34.685Z,86119.81
2022-09-23T20:04:02.362Z,86125.34
2022-09-23T20:06:31.213Z,86150.78
2022-09-23T20:09:02.158Z,86106.03
2022-09-23T20:11:29.509Z,86115.66
2022-09-23T20:14:00.817Z,86148.59
2022-09-23T20:16:32.479Z,86154.22
2022-09-23T20:19:00.788Z,86115.03
2022-09-23T20:21:29.445Z,86151.47
2022-09-23T20:23:57.447Z,86137.78
2022-09-23T20:26:43.420Z,86154.31
2022-09-23T20:29:11.344Z,86115.22
2022-09-23T20:31:40.668Z,86143.50
2022-09-23T20:34:10.909Z,86169.63
2022-09-23T20:36:41.801Z,86164.06
2022-09-23T20:39:10.473Z,86140.69
2022-09-23T20:41:39.490Z,86165.50
2022-09-23T20:44:13.040Z,86157.28
2022-09-23T20:46:46.995Z,86133.19
2022-09-23T20:49:17.013Z,86141.41
2022-09-23T20:51:44.115Z,86143.56
2022-09-23T20:54:12.296Z,86175.25
2022-09-23T20:56:39.565Z,86129.81
2022-09-23T20:59:06.710Z,86165.56
2022-09-23T21:01:35.643Z,86153.19
2022-09-23T21:04:05.031Z,86165.56
2022-09-23T21:06:33.855Z,86164.16
2022-09-23T21:09:00.953Z,86173.88
2022-09-23T21:11:28.223Z,86168.38
2022-09-23T21:13:55.222Z,86145.03
2022-09-23T21:16:23.143Z,86169.84
2022-09-23T21:18:51.695Z,86140.25
2022-09-23T21:21:20.211Z,86155.38
2022-09-23T21:23:47.913Z,86143.69
2022-09-23T21:26:14.766Z,86154.72
2022-09-23T21:28:44.035Z,86158.88
2022-09-23T21:31:22.686Z,86138.84
2022-09-23T21:33:57.163Z,86145.78
2022-09-23T21:36:24.925Z,86131.38
2022-09-23T21:38:52.448Z,86147.22
2022-09-23T21:41:20.178Z,86129.31
2022-09-23T21:43:49.601Z,86147.22
2022-09-23T21:46:22.029Z,86111.47
2022-09-23T21:48:53.351Z,86141.75
2022-09-23T21:51:23.340Z,86144.56
2022-09-23T21:53:50.640Z,86115.72
2022-09-23T21:56:28.949Z,86139.72
2022-09-23T21:58:57.762Z,86130.75
2022-09-23T22:01:27.294Z,86124.59
2022-09-23T22:03:55.430Z,86108.06
2022-09-23T22:06:27.602Z,86134.97
2022-09-23T22:09:00.014Z,86134.97
2022-09-23T22:11:48.185Z,86138.47
2022-09-23T22:14:16.533Z,86141.25
2022-09-23T22:16:44.158Z,86099.97
2022-09-23T22:19:13.770Z,86130.28
2022-09-23T22:21:43.270Z,86114.56
2022-09-23T22:24:11.623Z,86133.91
2022-09-23T22:26:44.030Z,86122.16
2022-09-23T22:29:32.640Z,86139.41
2022-09-23T22:32:19.627Z,86142.16
2022-09-23T22:34:50.615Z,86116.69
2022-09-23T22:37:21.405Z,86116.69
2022-09-23T22:39:48.381Z,86111.84
2022-09-23T22:42:15.629Z,86122.16
2022-09-23T22:44:42.580Z,86137.31
2022-09-23T22:47:10.208Z,86147.69
2022-09-23T22:49:37.130Z,86125.63
2022-09-23T22:52:08.052Z,86138.72
2022-09-23T22:54:35.791Z,86138.72
2022-09-23T22:57:07.474Z,86145.63
2022-09-23T22:59:35.502Z,86145.63
2022-09-23T23:02:03.086Z,86131.16
2022-09-23T23:04:30.627Z,86136.66
2022-09-23T23:06:58.955Z,86093.25
2022-09-23T23:09:26.418Z,86127.72
2022-09-23T23:11:53.343Z,86147.03
2022-09-23T23:14:20.704Z,86102.22
2022-09-23T23:16:47.619Z,86150.47
2022-09-23T23:19:17.438Z,86116.69
2022-09-23T23:21:45.720Z,86139.44
2022-09-23T23:24:23.868Z,86093.25
2022-09-23T23:26:52.445Z,86145.63
2022-09-23T23:29:21.246Z,86094.66
2022-09-23T23:31:49.094Z,86108.41
2022-09-23T23:34:20.580Z,86136.00
2022-09-23T23:36:53.634Z,86141.50
2022-09-23T23:39:23.689Z,86105.66
2022-09-23T23:41:55.229Z,86108.44
2022-09-23T23:44:23.947Z,86128.41
2022-09-23T23:46:51.339Z,86130.50
2022-09-23T23:49:18.360Z,86092.59
2022-09-23T23:51:45.617Z,86089.16
2022-09-23T23:54:12.905Z,86134.63
2022-09-23T23:56:39.903Z,86089.13
2022-09-23T23:59:06.900Z,86129.13
